sensor_id;sensor_type;location;lat;lon;timestamp;temperature;humidity
20524;DHT22;10420;48.542;12.270;2022-10-16T00:00:42;13.00;99.90
20524;DHT22;10420;48.542;12.270;2022-10-16T00:05:44;12.90;99.90
20524;DHT22;10420;48.542;12.270;2022-10-16T00:10:44;12.80;99.90
20524;DHT22;10420;48.542;12.270;2022-10-16T00:15:45;12.80;99.90
20524;DHT22;10420;48.542;12.270;2022-10-16T00:20:46;12.60;99.90
20524;DHT22;10420;48.542;12.270;2022-10-16T00:25:59;12.50;99.90
20524;DHT22;10420;48.542;12.270;2022-10-16T00:31:03;12.40;99.90
20524;DHT22;10420;48.542;12.270;2022-10-16T00:36:06;12.30;99.90
20524;DHT22;10420;48.542;12.270;2022-10-16T00:41:09;12.10;99.90
20524;DHT22;10420;48.542;12.270;2022-10-16T00:46:17;12.20;99.90
20524;DHT22;10420;48.542;12.270;2022-10-16T00:51:23;12.10;99.90
20524;DHT22;10420;48.542;12.270;2022-10-16T00:56:23;12.00;99.90
20524;DHT22;10420;48.542;12.270;2022-10-16T01:01:24;12.00;99.90
20524;DHT22;10420;48.542;12.270;2022-10-16T01:07:18;11.90;99.90
20524;DHT22;10420;48.542;12.270;2022-10-16T01:12:06;11.90;99.90
20524;DHT22;10420;48.542;12.270;2022-10-16T01:17:37;11.80;99.90
20524;DHT22;10420;48.542;12.270;2022-10-16T01:28:11;11.70;99.90
20524;DHT22;10420;48.542;12.270;2022-10-16T01:33:44;11.70;99.90
20524;DHT22;10420;48.542;12.270;2022-10-16T01:38:48;11.70;99.90
20524;DHT22;10420;48.542;12.270;2022-10-16T01:44:02;11.70;99.90
20524;DHT22;10420;48.542;12.270;2022-10-16T01:49:04;11.70;99.90
20524;DHT22;10420;48.542;12.270;2022-10-16T01:54:08;11.60;99.90
20524;DHT22;10420;48.542;12.270;2022-10-16T01:59:17;11.60;99.90
20524;DHT22;10420;48.542;12.270;2022-10-16T02:04:24;11.70;99.90
20524;DHT22;10420;48.542;12.270;2022-10-16T02:09:27;11.70;99.90
20524;DHT22;10420;48.542;12.270;2022-10-16T02:14:29;11.70;99.90
20524;DHT22;10420;48.542;12.270;2022-10-16T02:19:29;11.80;99.90
20524;DHT22;10420;48.542;12.270;2022-10-16T02:24:54;11.80;99.90
20524;DHT22;10420;48.542;12.270;2022-10-16T02:30:04;11.90;99.90
20524;DHT22;10420;48.542;12.270;2022-10-16T02:35:09;11.90;99.90
20524;DHT22;10420;48.542;12.270;2022-10-16T02:40:11;11.90;99.90
20524;DHT22;10420;48.542;12.270;2022-10-16T02:45:12;12.00;99.90
20524;DHT22;10420;48.542;12.270;2022-10-16T02:50:13;11.80;99.90
20524;DHT22;10420;48.542;12.270;2022-10-16T02:55:14;11.70;99.90
20524;DHT22;10420;48.542;12.270;2022-10-16T03:00:16;11.70;99.90
20524;DHT22;10420;48.542;12.270;2022-10-16T03:05:17;11.60;99.90
20524;DHT22;10420;48.542;12.270;2022-10-16T03:10:18;11.60;99.90
20524;DHT22;10420;48.542;12.270;2022-10-16T03:15:18;11.50;99.90
20524;DHT22;10420;48.542;12.270;2022-10-16T03:20:19;11.50;99.90
20524;DHT22;10420;48.542;12.270;2022-10-16T03:25:20;11.40;99.90
20524;DHT22;10420;48.542;12.270;2022-10-16T03:30:21;11.40;99.90
20524;DHT22;10420;48.542;12.270;2022-10-16T03:35:22;11.40;99.90
20524;DHT22;10420;48.542;12.270;2022-10-16T03:40:23;11.40;99.90
20524;DHT22;10420;48.542;12.270;2022-10-16T03:45:24;11.50;99.90
20524;DHT22;10420;48.542;12.270;2022-10-16T03:50:26;11.50;99.90
20524;DHT22;10420;48.542;12.270;2022-10-16T03:55:27;11.30;99.90
20524;DHT22;10420;48.542;12.270;2022-10-16T04:00:28;11.30;99.90
20524;DHT22;10420;48.542;12.270;2022-10-16T04:05:32;11.20;99.90
20524;DHT22;10420;48.542;12.270;2022-10-16T04:10:33;11.30;99.90
20524;DHT22;10420;48.542;12.270;2022-10-16T04:15:33;11.20;99.90
20524;DHT22;10420;48.542;12.270;2022-10-16T04:20:34;11.20;99.90
20524;DHT22;10420;48.542;12.270;2022-10-16T04:25:35;11.30;99.90
20524;DHT22;10420;48.542;12.270;2022-10-16T04:30:38;11.30;99.90
20524;DHT22;10420;48.542;12.270;2022-10-16T04:35:39;11.30;99.90
20524;DHT22;10420;48.542;12.270;2022-10-16T04:40:41;11.40;99.90
20524;DHT22;10420;48.542;12.270;2022-10-16T04:45:42;11.50;99.90
20524;DHT22;10420;48.542;12.270;2022-10-16T04:50:43;11.40;99.90
20524;DHT22;10420;48.542;12.270;2022-10-16T04:55:43;11.60;99.90
20524;DHT22;10420;48.542;12.270;2022-10-16T05:00:44;11.60;99.90
20524;DHT22;10420;48.542;12.270;2022-10-16T05:05:46;11.60;99.90
20524;DHT22;10420;48.542;12.270;2022-10-16T05:10:47;11.70;99.90
20524;DHT22;10420;48.542;12.270;2022-10-16T05:15:48;11.70;99.90
20524;DHT22;10420;48.542;12.270;2022-10-16T05:20:48;12.10;99.90
20524;DHT22;10420;48.542;12.270;2022-10-16T05:25:56;12.40;99.90
20524;DHT22;10420;48.542;12.270;2022-10-16T05:30:58;12.60;99.90
20524;DHT22;10420;48.542;12.270;2022-10-16T05:36:08;12.70;99.90
20524;DHT22;10420;48.542;12.270;2022-10-16T05:41:09;12.60;99.90
20524;DHT22;10420;48.542;12.270;2022-10-16T05:46:10;12.50;99.90
20524;DHT22;10420;48.542;12.270;2022-10-16T05:51:12;12.50;99.90
20524;DHT22;10420;48.542;12.270;2022-10-16T05:56:14;12.60;99.90
20524;DHT22;10420;48.542;12.270;2022-10-16T06:01:17;12.60;99.90
20524;DHT22;10420;48.542;12.270;2022-10-16T06:06:20;12.90;99.90
20524;DHT22;10420;48.542;12.270;2022-10-16T06:11:26;12.80;99.90
20524;DHT22;10420;48.542;12.270;2022-10-16T06:16:27;12.60;99.90
20524;DHT22;10420;48.542;12.270;2022-10-16T06:21:28;12.50;99.90
20524;DHT22;10420;48.542;12.270;2022-10-16T06:26:30;12.60;99.90
20524;DHT22;10420;48.542;12.270;2022-10-16T06:31:31;12.70;99.90
20524;DHT22;10420;48.542;12.270;2022-10-16T06:36:33;12.90;99.90
20524;DHT22;10420;48.542;12.270;2022-10-16T06:41:34;13.10;99.90
20524;DHT22;10420;48.542;12.270;2022-10-16T06:46:35;13.10;99.90
20524;DHT22;10420;48.542;12.270;2022-10-16T06:51:36;13.10;99.90
20524;DHT22;10420;48.542;12.270;2022-10-16T06:56:41;13.20;99.90
20524;DHT22;10420;48.542;12.270;2022-10-16T07:01:41;13.40;99.90
20524;DHT22;10420;48.542;12.270;2022-10-16T07:06:42;13.80;99.90
20524;DHT22;10420;48.542;12.270;2022-10-16T07:11:43;13.80;99.90
20524;DHT22;10420;48.542;12.270;2022-10-16T07:16:44;14.00;99.90
20524;DHT22;10420;48.542;12.270;2022-10-16T07:21:45;14.20;99.90
20524;DHT22;10420;48.542;12.270;2022-10-16T07:26:46;14.30;99.90
20524;DHT22;10420;48.542;12.270;2022-10-16T07:31:47;14.60;99.90
20524;DHT22;10420;48.542;12.270;2022-10-16T07:36:49;14.60;99.90
20524;DHT22;10420;48.542;12.270;2022-10-16T07:41:50;14.70;99.90
20524;DHT22;10420;48.542;12.270;2022-10-16T07:46:51;14.80;99.90
20524;DHT22;10420;48.542;12.270;2022-10-16T07:51:51;15.00;99.90
20524;DHT22;10420;48.542;12.270;2022-10-16T07:56:52;15.30;99.90
20524;DHT22;10420;48.542;12.270;2022-10-16T08:01:53;15.30;99.90
20524;DHT22;10420;48.542;12.270;2022-10-16T08:06:53;15.30;99.90
20524;DHT22;10420;48.542;12.270;2022-10-16T08:11:58;15.50;99.90
20524;DHT22;10420;48.542;12.270;2022-10-16T08:16:58;15.90;99.90
20524;DHT22;10420;48.542;12.270;2022-10-16T08:22:00;15.90;99.90
20524;DHT22;10420;48.542;12.270;2022-10-16T08:27:00;16.10;99.90
20524;DHT22;10420;48.542;12.270;2022-10-16T08:32:01;15.90;99.90
20524;DHT22;10420;48.542;12.270;2022-10-16T08:37:03;16.00;99.90
20524;DHT22;10420;48.542;12.270;2022-10-16T08:47:45;15.90;99.90
20524;DHT22;10420;48.542;12.270;2022-10-16T08:52:49;16.20;99.90
20524;DHT22;10420;48.542;12.270;2022-10-16T08:57:49;16.60;99.90
20524;DHT22;10420;48.542;12.270;2022-10-16T09:03:03;17.00;99.90
20524;DHT22;10420;48.542;12.270;2022-10-16T09:23:36;27.00;99.90
20524;DHT22;10420;48.542;12.270;2022-10-16T09:28:37;26.10;99.90
20524;DHT22;10420;48.542;12.270;2022-10-16T09:33:39;27.70;99.90
20524;DHT22;10420;48.542;12.270;2022-10-16T09:38:40;29.60;99.90
20524;DHT22;10420;48.542;12.270;2022-10-16T09:44:01;27.30;99.90
20524;DHT22;10420;48.542;12.270;2022-10-16T09:49:23;28.20;99.90
20524;DHT22;10420;48.542;12.270;2022-10-16T09:54:24;28.20;99.90
20524;DHT22;10420;48.542;12.270;2022-10-16T09:59:25;26.70;99.90
20524;DHT22;10420;48.542;12.270;2022-10-16T10:04:38;28.30;99.90
20524;DHT22;10420;48.542;12.270;2022-10-16T10:09:42;27.60;99.90
20524;DHT22;10420;48.542;12.270;2022-10-16T10:14:52;28.60;99.90
20524;DHT22;10420;48.542;12.270;2022-10-16T10:19:58;28.70;99.90
20524;DHT22;10420;48.542;12.270;2022-10-16T10:35:42;27.80;99.90
20524;DHT22;10420;48.542;12.270;2022-10-16T10:41:18;23.40;99.90
20524;DHT22;10420;48.542;12.270;2022-10-16T10:57:09;22.60;99.90
20524;DHT22;10420;48.542;12.270;2022-10-16T11:07:27;22.80;99.90
20524;DHT22;10420;48.542;12.270;2022-10-16T11:12:39;23.40;99.90
20524;DHT22;10420;48.542;12.270;2022-10-16T11:17:59;23.20;99.90
20524;DHT22;10420;48.542;12.270;2022-10-16T11:23:18;23.60;99.90
20524;DHT22;10420;48.542;12.270;2022-10-16T11:33:47;23.10;99.90
20524;DHT22;10420;48.542;12.270;2022-10-16T11:39:04;22.90;99.90
20524;DHT22;10420;48.542;12.270;2022-10-16T11:49:37;22.00;99.90
20524;DHT22;10420;48.542;12.270;2022-10-16T11:55:14;22.60;99.90
20524;DHT22;10420;48.542;12.270;2022-10-16T12:00:26;22.60;99.90
20524;DHT22;10420;48.542;12.270;2022-10-16T12:10:48;22.50;99.90
20524;DHT22;10420;48.542;12.270;2022-10-16T12:15:49;22.60;99.90
20524;DHT22;10420;48.542;12.270;2022-10-16T12:20:57;22.60;99.90
20524;DHT22;10420;48.542;12.270;2022-10-16T12:26:06;22.50;99.90
20524;DHT22;10420;48.542;12.270;2022-10-16T12:31:08;22.50;99.90
20524;DHT22;10420;48.542;12.270;2022-10-16T12:36:26;22.60;99.90
20524;DHT22;10420;48.542;12.270;2022-10-16T12:41:33;22.50;99.90
20524;DHT22;10420;48.542;12.270;2022-10-16T12:46:38;22.30;99.90
20524;DHT22;10420;48.542;12.270;2022-10-16T12:51:40;22.10;99.90
20524;DHT22;10420;48.542;12.270;2022-10-16T13:28:04;21.40;99.90
20524;DHT22;10420;48.542;12.270;2022-10-16T13:33:39;21.20;99.90
20524;DHT22;10420;48.542;12.270;2022-10-16T13:38:41;21.30;99.90
20524;DHT22;10420;48.542;12.270;2022-10-16T13:43:52;21.40;99.90
20524;DHT22;10420;48.542;12.270;2022-10-16T13:53:59;21.70;99.90
20524;DHT22;10420;48.542;12.270;2022-10-16T13:59:01;21.60;99.90
20524;DHT22;10420;48.542;12.270;2022-10-16T14:04:04;21.40;99.90
20524;DHT22;10420;48.542;12.270;2022-10-16T14:09:28;21.10;99.90
20524;DHT22;10420;48.542;12.270;2022-10-16T14:14:35;20.70;99.90
20524;DHT22;10420;48.542;12.270;2022-10-16T14:19:40;20.60;99.90
20524;DHT22;10420;48.542;12.270;2022-10-16T14:24:40;20.40;99.90
20524;DHT22;10420;48.542;12.270;2022-10-16T14:29:41;20.20;99.90
20524;DHT22;10420;48.542;12.270;2022-10-16T14:34:42;20.00;99.90
20524;DHT22;10420;48.542;12.270;2022-10-16T14:39:53;20.00;99.90
20524;DHT22;10420;48.542;12.270;2022-10-16T14:44:55;19.80;99.90
20524;DHT22;10420;48.542;12.270;2022-10-16T14:49:55;19.60;99.90
20524;DHT22;10420;48.542;12.270;2022-10-16T14:54:59;19.40;99.90
20524;DHT22;10420;48.542;12.270;2022-10-16T14:59:59;19.40;99.90
20524;DHT22;10420;48.542;12.270;2022-10-16T15:05:20;19.10;99.90
20524;DHT22;10420;48.542;12.270;2022-10-16T15:10:22;19.10;99.90
20524;DHT22;10420;48.542;12.270;2022-10-16T15:15:39;19.10;99.90
20524;DHT22;10420;48.542;12.270;2022-10-16T15:20:42;19.00;99.90
20524;DHT22;10420;48.542;12.270;2022-10-16T15:25:45;18.80;99.90
20524;DHT22;10420;48.542;12.270;2022-10-16T15:30:48;18.70;99.90
20524;DHT22;10420;48.542;12.270;2022-10-16T15:35:51;18.40;99.90
20524;DHT22;10420;48.542;12.270;2022-10-16T15:40:51;18.50;99.90
20524;DHT22;10420;48.542;12.270;2022-10-16T15:51:06;18.00;99.90
20524;DHT22;10420;48.542;12.270;2022-10-16T15:56:09;17.60;99.90
20524;DHT22;10420;48.542;12.270;2022-10-16T16:01:11;17.60;99.90
20524;DHT22;10420;48.542;12.270;2022-10-16T16:06:13;17.50;99.90
20524;DHT22;10420;48.542;12.270;2022-10-16T16:11:15;17.40;99.90
20524;DHT22;10420;48.542;12.270;2022-10-16T16:16:16;17.10;99.90
20524;DHT22;10420;48.542;12.270;2022-10-16T16:21:18;16.90;99.90
20524;DHT22;10420;48.542;12.270;2022-10-16T16:26:27;16.70;99.90
20524;DHT22;10420;48.542;12.270;2022-10-16T16:31:29;16.70;99.90
20524;DHT22;10420;48.542;12.270;2022-10-16T16:36:30;16.60;99.90
20524;DHT22;10420;48.542;12.270;2022-10-16T16:41:31;16.30;99.90
20524;DHT22;10420;48.542;12.270;2022-10-16T16:46:33;16.20;99.90
20524;DHT22;10420;48.542;12.270;2022-10-16T16:51:34;16.20;99.90
20524;DHT22;10420;48.542;12.270;2022-10-16T16:56:35;16.00;99.90
20524;DHT22;10420;48.542;12.270;2022-10-16T17:01:36;15.80;99.90
20524;DHT22;10420;48.542;12.270;2022-10-16T17:06:37;15.80;99.90
20524;DHT22;10420;48.542;12.270;2022-10-16T17:11:37;15.60;99.90
20524;DHT22;10420;48.542;12.270;2022-10-16T17:16:39;15.50;99.90
20524;DHT22;10420;48.542;12.270;2022-10-16T17:21:40;15.50;99.90
20524;DHT22;10420;48.542;12.270;2022-10-16T17:26:41;15.40;99.90
20524;DHT22;10420;48.542;12.270;2022-10-16T17:31:48;15.40;99.90
20524;DHT22;10420;48.542;12.270;2022-10-16T17:36:51;15.50;99.90
20524;DHT22;10420;48.542;12.270;2022-10-16T17:41:52;15.40;99.90
20524;DHT22;10420;48.542;12.270;2022-10-16T17:46:54;15.50;99.90
20524;DHT22;10420;48.542;12.270;2022-10-16T17:51:54;15.60;99.90
20524;DHT22;10420;48.542;12.270;2022-10-16T17:56:55;15.70;99.90
20524;DHT22;10420;48.542;12.270;2022-10-16T18:01:56;15.60;99.90
20524;DHT22;10420;48.542;12.270;2022-10-16T18:06:56;15.60;99.90
20524;DHT22;10420;48.542;12.270;2022-10-16T18:11:59;15.60;99.90
20524;DHT22;10420;48.542;12.270;2022-10-16T18:17:00;15.50;99.90
20524;DHT22;10420;48.542;12.270;2022-10-16T18:22:01;15.50;99.90
20524;DHT22;10420;48.542;12.270;2022-10-16T18:27:01;15.40;99.90
20524;DHT22;10420;48.542;12.270;2022-10-16T18:32:02;15.40;99.90
20524;DHT22;10420;48.542;12.270;2022-10-16T18:37:03;15.30;99.90
20524;DHT22;10420;48.542;12.270;2022-10-16T18:42:03;15.30;99.90
20524;DHT22;10420;48.542;12.270;2022-10-16T18:47:04;15.20;99.90
20524;DHT22;10420;48.542;12.270;2022-10-16T18:52:05;15.10;99.90
20524;DHT22;10420;48.542;12.270;2022-10-16T18:57:06;15.10;99.90
20524;DHT22;10420;48.542;12.270;2022-10-16T19:02:08;15.00;99.90
20524;DHT22;10420;48.542;12.270;2022-10-16T19:07:08;15.00;99.90
20524;DHT22;10420;48.542;12.270;2022-10-16T19:12:10;15.00;99.90
20524;DHT22;10420;48.542;12.270;2022-10-16T19:17:11;14.80;99.90
20524;DHT22;10420;48.542;12.270;2022-10-16T19:22:11;14.70;99.90
20524;DHT22;10420;48.542;12.270;2022-10-16T19:27:27;14.60;99.90
20524;DHT22;10420;48.542;12.270;2022-10-16T19:32:27;14.50;99.90
20524;DHT22;10420;48.542;12.270;2022-10-16T19:37:28;14.50;99.90
20524;DHT22;10420;48.542;12.270;2022-10-16T19:42:31;14.30;99.90
20524;DHT22;10420;48.542;12.270;2022-10-16T19:47:35;14.20;99.90
20524;DHT22;10420;48.542;12.270;2022-10-16T19:52:38;14.20;99.90
20524;DHT22;10420;48.542;12.270;2022-10-16T19:57:39;14.20;99.90
20524;DHT22;10420;48.542;12.270;2022-10-16T20:02:40;14.10;99.90
20524;DHT22;10420;48.542;12.270;2022-10-16T20:07:41;14.00;99.90
20524;DHT22;10420;48.542;12.270;2022-10-16T20:12:41;14.00;99.90
20524;DHT22;10420;48.542;12.270;2022-10-16T20:17:42;14.00;99.90
20524;DHT22;10420;48.542;12.270;2022-10-16T20:22:43;14.00;99.90
20524;DHT22;10420;48.542;12.270;2022-10-16T20:27:44;14.00;99.90
20524;DHT22;10420;48.542;12.270;2022-10-16T20:32:44;13.90;99.90
20524;DHT22;10420;48.542;12.270;2022-10-16T20:37:45;13.90;99.90
20524;DHT22;10420;48.542;12.270;2022-10-16T20:42:48;13.70;99.90
20524;DHT22;10420;48.542;12.270;2022-10-16T20:47:48;13.70;99.90
20524;DHT22;10420;48.542;12.270;2022-10-16T20:52:49;13.60;99.90
20524;DHT22;10420;48.542;12.270;2022-10-16T20:57:50;13.50;99.90
20524;DHT22;10420;48.542;12.270;2022-10-16T21:02:51;13.40;99.90
20524;DHT22;10420;48.542;12.270;2022-10-16T21:07:52;13.50;99.90
20524;DHT22;10420;48.542;12.270;2022-10-16T21:12:53;13.40;99.90
20524;DHT22;10420;48.542;12.270;2022-10-16T21:17:57;13.40;99.90
20524;DHT22;10420;48.542;12.270;2022-10-16T21:22:57;13.50;99.90
20524;DHT22;10420;48.542;12.270;2022-10-16T21:27:58;13.50;99.90
20524;DHT22;10420;48.542;12.270;2022-10-16T21:32:59;13.60;99.90
20524;DHT22;10420;48.542;12.270;2022-10-16T21:37:59;13.50;99.90
20524;DHT22;10420;48.542;12.270;2022-10-16T21:43:01;13.30;99.90
20524;DHT22;10420;48.542;12.270;2022-10-16T21:48:04;13.30;99.90
20524;DHT22;10420;48.542;12.270;2022-10-16T21:53:04;13.30;99.90
20524;DHT22;10420;48.542;12.270;2022-10-16T21:58:05;13.20;99.90
20524;DHT22;10420;48.542;12.270;2022-10-16T22:03:08;13.10;99.90
20524;DHT22;10420;48.542;12.270;2022-10-16T22:08:09;13.00;99.90
20524;DHT22;10420;48.542;12.270;2022-10-16T22:13:09;13.00;99.90
20524;DHT22;10420;48.542;12.270;2022-10-16T22:18:10;12.90;99.90
20524;DHT22;10420;48.542;12.270;2022-10-16T22:23:11;12.70;99.90
20524;DHT22;10420;48.542;12.270;2022-10-16T22:28:12;12.70;99.90
20524;DHT22;10420;48.542;12.270;2022-10-16T22:33:13;12.60;99.90
20524;DHT22;10420;48.542;12.270;2022-10-16T22:38:13;12.50;99.90
20524;DHT22;10420;48.542;12.270;2022-10-16T22:43:14;12.50;99.90
20524;DHT22;10420;48.542;12.270;2022-10-16T22:48:15;12.40;99.90
20524;DHT22;10420;48.542;12.270;2022-10-16T22:53:15;12.40;99.90
20524;DHT22;10420;48.542;12.270;2022-10-16T22:58:16;12.40;99.90
20524;DHT22;10420;48.542;12.270;2022-10-16T23:03:17;12.40;99.90
20524;DHT22;10420;48.542;12.270;2022-10-16T23:08:18;12.40;99.90
20524;DHT22;10420;48.542;12.270;2022-10-16T23:13:18;12.40;99.90
20524;DHT22;10420;48.542;12.270;2022-10-16T23:18:19;12.50;99.90
20524;DHT22;10420;48.542;12.270;2022-10-16T23:23:20;12.40;99.90
20524;DHT22;10420;48.542;12.270;2022-10-16T23:28:20;12.40;99.90
20524;DHT22;10420;48.542;12.270;2022-10-16T23:33:21;12.40;99.90
20524;DHT22;10420;48.542;12.270;2022-10-16T23:38:21;12.30;99.90
20524;DHT22;10420;48.542;12.270;2022-10-16T23:43:22;12.30;99.90
20524;DHT22;10420;48.542;12.270;2022-10-16T23:48:23;12.20;99.90
20524;DHT22;10420;48.542;12.270;2022-10-16T23:53:24;12.20;99.90
20524;DHT22;10420;48.542;12.270;2022-10-16T23:58:25;12.10;99.90
